Time;durP1;ratioP1;P1;durP2;ratioP2;P2;SDS_P1;SDS_P2;PMS_P1;PMS_P2;Temp;Humidity;BMP_temperature;BMP_pressure;BME280_temperature;BME280_humidity;BME280_pressure;Samples;Min_cycle;Max_cycle;Signal;HPM_P1;HPM_P2
2023/05/16 00:00:19;;;;;;;7.68;2.83;;;;;;;;;;5056119;28;20040;-75
2023/05/16 00:02:45;;;;;;;11.70;2.70;;;;;;;;;;5055682;28;20048;-76
2023/05/16 00:05:13;;;;;;;7.88;2.78;;;;;;;;;;5073547;28;20105;-76
2023/05/16 00:07:41;;;;;;;11.43;2.70;;;;;;;;;;5057985;28;20072;-75
2023/05/16 00:10:07;;;;;;;15.57;3.25;;;;;;;;;;5063773;28;20148;-76
2023/05/16 00:12:35;;;;;;;10.25;2.83;;;;;;;;;;5053753;28;20259;-75
2023/05/16 00:15:02;;;;;;;12.73;2.80;;;;;;;;;;5054098;28;20045;-75
2023/05/16 00:17:28;;;;;;;10.23;2.80;;;;;;;;;;5053399;28;20045;-76
2023/05/16 00:19:57;;;;;;;9.85;3.00;;;;;;;;;;5070520;28;20120;-75
2023/05/16 00:22:26;;;;;;;10.65;3.00;;;;;;;;;;5071666;28;20120;-75
2023/05/16 00:24:52;;;;;;;8.93;3.22;;;;;;;;;;5065338;28;20184;-76
2023/05/16 00:27:18;;;;;;;11.98;3.15;;;;;;;;;;5064615;28;20402;-75
2023/05/16 00:29:44;;;;;;;15.05;2.88;;;;;;;;;;5073677;28;20053;-75
2023/05/16 00:32:10;;;;;;;11.75;2.90;;;;;;;;;;5070300;28;20040;-75
2023/05/16 00:34:36;;;;;;;12.63;3.50;;;;;;;;;;5062943;28;20036;-75
2023/05/16 00:37:02;;;;;;;13.80;2.75;;;;;;;;;;5054029;28;20052;-75
2023/05/16 00:39:29;;;;;;;7.80;2.47;;;;;;;;;;5053257;28;20076;-75
2023/05/16 00:41:56;;;;;;;13.00;3.10;;;;;;;;;;5046369;28;20119;-75
2023/05/16 00:44:22;;;;;;;10.30;2.85;;;;;;;;;;5053076;28;20120;-75
2023/05/16 00:46:48;;;;;;;11.95;3.00;;;;;;;;;;5054587;28;20455;-75
2023/05/16 00:49:14;;;;;;;15.57;3.20;;;;;;;;;;5042884;28;20052;-75
2023/05/16 00:51:41;;;;;;;8.60;3.25;;;;;;;;;;5053810;28;20102;-75
2023/05/16 00:54:07;;;;;;;14.18;3.40;;;;;;;;;;5072821;28;20067;-75
2023/05/16 00:56:33;;;;;;;9.75;2.60;;;;;;;;;;5073290;28;20048;-76
2023/05/16 00:58:59;;;;;;;10.60;3.05;;;;;;;;;;5068952;28;20037;-75
2023/05/16 01:01:27;;;;;;;8.02;2.78;;;;;;;;;;5061974;28;20037;-75
2023/05/16 01:03:53;;;;;;;10.95;3.45;;;;;;;;;;5053307;28;20119;-75
2023/05/16 01:06:19;;;;;;;12.55;3.13;;;;;;;;;;5054869;28;20506;-75
2023/05/16 01:08:46;;;;;;;11.82;2.88;;;;;;;;;;5054214;28;20052;-75
2023/05/16 01:11:16;;;;;;;11.70;3.20;;;;;;;;;;5073289;28;20461;-75
2023/05/16 01:13:49;;;;;;;9.25;2.78;;;;;;;;;;5073304;28;20044;-75
2023/05/16 01:16:22;;;;;;;8.93;3.22;;;;;;;;;;5075679;28;20122;-75
2023/05/16 01:18:54;;;;;;;12.50;2.90;;;;;;;;;;5063533;28;20041;-75
2023/05/16 01:21:31;;;;;;;14.07;2.70;;;;;;;;;;5039193;28;20048;-75
2023/05/16 01:24:04;;;;;;;14.80;3.28;;;;;;;;;;5053602;28;20045;-75
2023/05/16 01:26:31;;;;;;;10.45;2.80;;;;;;;;;;5056516;28;20041;-75
2023/05/16 01:28:57;;;;;;;12.63;3.05;;;;;;;;;;5056375;28;20490;-75
2023/05/16 01:31:23;;;;;;;9.93;2.97;;;;;;;;;;5056700;28;20053;-75
2023/05/16 01:33:49;;;;;;;11.68;3.13;;;;;;;;;;5056468;28;20044;-75
2023/05/16 01:36:25;;;;;;;9.20;2.58;;;;;;;;;;5058184;28;20380;-75
2023/05/16 01:39:10;;;;;;;14.23;3.13;;;;;;;;;;5057909;28;20095;-75
2023/05/16 01:41:40;;;;;;;10.68;2.90;;;;;;;;;;5055035;28;20049;-75
2023/05/16 01:44:10;;;;;;;9.95;3.10;;;;;;;;;;5038639;28;20083;-75
2023/05/16 01:46:38;;;;;;;10.20;2.88;;;;;;;;;;5073803;28;20095;-75
2023/05/16 01:49:15;;;;;;;11.23;3.03;;;;;;;;;;5076049;28;20087;-75
2023/05/16 01:51:42;;;;;;;12.85;3.05;;;;;;;;;;5069680;28;20127;-75
2023/05/16 01:54:10;;;;;;;12.63;3.08;;;;;;;;;;5077212;28;20068;-75
2023/05/16 01:56:37;;;;;;;10.60;3.13;;;;;;;;;;5079055;28;20117;-75
2023/05/16 01:59:03;;;;;;;12.15;2.90;;;;;;;;;;5077425;28;20047;-75
2023/05/16 02:01:30;;;;;;;11.20;2.67;;;;;;;;;;5059575;28;20371;-75
2023/05/16 02:03:56;;;;;;;10.88;3.00;;;;;;;;;;5040822;28;20397;-76
2023/05/16 02:06:24;;;;;;;13.75;2.95;;;;;;;;;;5076171;28;20048;-75
2023/05/16 02:08:51;;;;;;;10.80;2.42;;;;;;;;;;5075565;28;20053;-75
2023/05/16 02:11:17;;;;;;;10.07;2.60;;;;;;;;;;5074940;28;20044;-75
2023/05/16 02:13:43;;;;;;;7.05;2.90;;;;;;;;;;5060718;28;20049;-75
2023/05/16 02:16:12;;;;;;;8.80;2.85;;;;;;;;;;5075601;28;20049;-75
2023/05/16 02:18:38;;;;;;;9.93;2.85;;;;;;;;;;5062931;28;20040;-75
2023/05/16 02:21:04;;;;;;;13.98;3.38;;;;;;;;;;5047222;28;20056;-75
2023/05/16 02:23:31;;;;;;;10.25;2.65;;;;;;;;;;5076134;28;20090;-75
2023/05/16 02:25:57;;;;;;;8.05;3.13;;;;;;;;;;5059450;28;20076;-75
2023/05/16 02:28:23;;;;;;;10.85;2.97;;;;;;;;;;5052094;28;20052;-75
2023/05/16 02:30:59;;;;;;;9.60;2.78;;;;;;;;;;5075626;28;20045;-75
2023/05/16 02:33:26;;;;;;;9.13;3.00;;;;;;;;;;5048865;28;20148;-75
2023/05/16 02:35:52;;;;;;;14.02;3.25;;;;;;;;;;5064903;28;20075;-75
2023/05/16 02:38:19;;;;;;;9.25;2.70;;;;;;;;;;5075438;28;20048;-75
2023/05/16 02:40:46;;;;;;;10.05;2.65;;;;;;;;;;5070252;28;20525;-75
2023/05/16 02:43:13;;;;;;;8.40;3.40;;;;;;;;;;5055858;28;20037;-75
2023/05/16 02:45:39;;;;;;;10.38;3.45;;;;;;;;;;5055238;28;20124;-75
2023/05/16 02:48:06;;;;;;;9.60;2.67;;;;;;;;;;5054154;28;20041;-75
2023/05/16 02:50:32;;;;;;;5.80;2.25;;;;;;;;;;5055904;28;20047;-79
2023/05/16 02:53:01;;;;;;;11.63;2.60;;;;;;;;;;5055471;28;20037;-75
2023/05/16 02:55:27;;;;;;;8.70;2.85;;;;;;;;;;5053891;28;20083;-75
2023/05/16 02:57:53;;;;;;;9.00;2.92;;;;;;;;;;5053838;28;20049;-75
2023/05/16 03:00:19;;;;;;;8.40;2.70;;;;;;;;;;5055723;28;20041;-75
2023/05/16 03:02:45;;;;;;;9.60;2.92;;;;;;;;;;5054852;28;20045;-75
2023/05/16 03:05:11;;;;;;;11.23;2.53;;;;;;;;;;5056256;28;20045;-75
2023/05/16 03:07:38;;;;;;;8.15;3.20;;;;;;;;;;5055360;28;20044;-75
2023/05/16 03:10:05;;;;;;;9.25;2.80;;;;;;;;;;5070054;28;20734;-75
2023/05/16 03:12:31;;;;;;;15.38;2.70;;;;;;;;;;5073067;28;20102;-75
2023/05/16 03:14:57;;;;;;;10.15;2.58;;;;;;;;;;5055333;28;20170;-75
2023/05/16 03:17:23;;;;;;;10.88;3.13;;;;;;;;;;5054583;28;20088;-75
2023/05/16 03:19:49;;;;;;;10.88;2.53;;;;;;;;;;5061020;28;20045;-75
2023/05/16 03:22:15;;;;;;;7.43;2.75;;;;;;;;;;5074726;28;20048;-75
2023/05/16 03:24:41;;;;;;;6.35;2.10;;;;;;;;;;5063349;28;20182;-75
2023/05/16 03:27:07;;;;;;;10.52;3.42;;;;;;;;;;5039312;28;20123;-75
2023/05/16 03:29:34;;;;;;;9.23;2.72;;;;;;;;;;5072015;28;20044;-75
2023/05/16 03:31:59;;;;;;;13.90;3.00;;;;;;;;;;5036608;28;20061;-75
2023/05/16 03:34:26;;;;;;;5.85;2.70;;;;;;;;;;5058073;28;20418;-75
2023/05/16 03:36:52;;;;;;;13.02;3.22;;;;;;;;;;5072057;28;20044;-75
2023/05/16 03:39:18;;;;;;;7.63;2.47;;;;;;;;;;5048790;28;20479;-75
2023/05/16 03:41:45;;;;;;;9.75;2.83;;;;;;;;;;5074153;28;20044;-75
2023/05/16 03:44:11;;;;;;;11.48;2.70;;;;;;;;;;5073817;28;20548;-75
2023/05/16 03:46:37;;;;;;;11.55;2.92;;;;;;;;;;5074040;28;20509;-75
2023/05/16 03:49:03;;;;;;;9.98;2.50;;;;;;;;;;5049810;28;20084;-75
2023/05/16 03:51:29;;;;;;;8.63;2.60;;;;;;;;;;5073923;28;20048;-75
2023/05/16 03:53:55;;;;;;;11.02;2.53;;;;;;;;;;5074024;28;20044;-75
2023/05/16 03:56:21;;;;;;;8.10;2.33;;;;;;;;;;5055324;28;20121;-75
2023/05/16 03:58:48;;;;;;;8.65;2.53;;;;;;;;;;5055266;28;20045;-75
2023/05/16 04:01:14;;;;;;;9.57;3.13;;;;;;;;;;5053984;28;20130;-75
2023/05/16 04:03:40;;;;;;;11.65;3.08;;;;;;;;;;5054956;28;20044;-75
2023/05/16 04:06:07;;;;;;;11.15;2.63;;;;;;;;;;5053487;28;20048;-75
2023/05/16 04:08:33;;;;;;;9.85;2.72;;;;;;;;;;5066487;28;20041;-75
2023/05/16 04:10:59;;;;;;;6.20;2.10;;;;;;;;;;5053401;28;20061;-75
2023/05/16 04:13:25;;;;;;;6.55;2.13;;;;;;;;;;5054285;28;20053;-75
2023/05/16 04:15:51;;;;;;;9.82;2.85;;;;;;;;;;5054189;28;20049;-75
2023/05/16 04:18:18;;;;;;;12.32;2.63;;;;;;;;;;5053453;28;20053;-75
2023/05/16 04:20:46;;;;;;;8.38;2.60;;;;;;;;;;5035771;28;20489;-75
2023/05/16 04:23:12;;;;;;;11.68;2.85;;;;;;;;;;5053354;28;20498;-75
2023/05/16 04:25:38;;;;;;;9.65;2.50;;;;;;;;;;5073060;28;20049;-75
2023/05/16 04:28:05;;;;;;;8.05;2.40;;;;;;;;;;5072374;28;20090;-75
2023/05/16 04:30:31;;;;;;;10.50;2.70;;;;;;;;;;5056321;28;20037;-75
2023/05/16 04:32:58;;;;;;;11.02;2.83;;;;;;;;;;5059539;28;20037;-75
2023/05/16 04:35:24;;;;;;;6.88;2.50;;;;;;;;;;5053126;28;20053;-75
2023/05/16 04:37:50;;;;;;;9.85;2.38;;;;;;;;;;5055467;28;20048;-75
2023/05/16 04:40:16;;;;;;;11.75;2.60;;;;;;;;;;5064386;28;20110;-75
2023/05/16 04:42:42;;;;;;;9.60;2.55;;;;;;;;;;5053414;28;20041;-75
2023/05/16 04:45:13;;;;;;;8.57;2.40;;;;;;;;;;5053249;28;20045;-75
2023/05/16 04:47:39;;;;;;;8.75;2.72;;;;;;;;;;5053263;28;20041;-75
2023/05/16 04:50:07;;;;;;;9.63;2.70;;;;;;;;;;5054995;28;20040;-75
2023/05/16 04:52:33;;;;;;;8.48;2.22;;;;;;;;;;5057258;28;20056;-76
2023/05/16 04:55:00;;;;;;;8.50;2.38;;;;;;;;;;5039833;28;20098;-75
2023/05/16 04:57:26;;;;;;;6.47;2.17;;;;;;;;;;5057418;28;20112;-75
2023/05/16 04:59:52;;;;;;;10.07;2.58;;;;;;;;;;5057798;28;20052;-75
2023/05/16 05:02:18;;;;;;;10.55;2.50;;;;;;;;;;5061013;28;20083;-75
2023/05/16 05:04:45;;;;;;;5.95;2.03;;;;;;;;;;5063167;28;20044;-75
2023/05/16 05:07:11;;;;;;;10.10;2.58;;;;;;;;;;5058413;28;20105;-75
2023/05/16 05:09:37;;;;;;;7.22;2.50;;;;;;;;;;5053575;28;20054;-75
2023/05/16 05:12:03;;;;;;;12.40;2.53;;;;;;;;;;5045529;28;20085;-75
2023/05/16 05:14:29;;;;;;;5.72;2.10;;;;;;;;;;5043800;28;20039;-75
2023/05/16 05:16:56;;;;;;;9.00;2.53;;;;;;;;;;5070539;28;20045;-75
2023/05/16 05:19:22;;;;;;;11.73;2.53;;;;;;;;;;5065268;28;20390;-75
2023/05/16 05:21:48;;;;;;;7.85;2.85;;;;;;;;;;5056415;28;20060;-75
2023/05/16 05:24:14;;;;;;;7.85;2.33;;;;;;;;;;5056891;28;20037;-75
2023/05/16 05:26:40;;;;;;;3.47;1.90;;;;;;;;;;5056838;28;20045;-75
2023/05/16 05:29:06;;;;;;;3.58;1.80;;;;;;;;;;5056384;28;20040;-75
2023/05/16 05:31:33;;;;;;;5.10;1.58;;;;;;;;;;5056560;28;20601;-76
2023/05/16 05:33:59;;;;;;;5.00;1.83;;;;;;;;;;5035207;28;20105;-75
2023/05/16 05:36:26;;;;;;;5.45;2.10;;;;;;;;;;5075958;28;20045;-75
2023/05/16 05:38:52;;;;;;;6.45;1.60;;;;;;;;;;5045689;28;20067;-76
2023/05/16 05:41:18;;;;;;;5.03;1.70;;;;;;;;;;5057937;28;20044;-75
2023/05/16 05:43:44;;;;;;;4.63;1.75;;;;;;;;;;5075800;28;20041;-75
2023/05/16 05:46:10;;;;;;;5.53;1.70;;;;;;;;;;5058194;28;20518;-75
2023/05/16 05:48:36;;;;;;;3.95;1.70;;;;;;;;;;5057705;28;20201;-75
2023/05/16 05:51:02;;;;;;;4.72;2.22;;;;;;;;;;5026461;28;20110;-75
2023/05/16 05:53:29;;;;;;;5.75;2.35;;;;;;;;;;5057543;28;20048;-75
2023/05/16 05:55:55;;;;;;;5.25;1.60;;;;;;;;;;5055125;28;20060;-75
2023/05/16 05:58:22;;;;;;;6.07;1.90;;;;;;;;;;5066004;28;20090;-75
2023/05/16 06:00:48;;;;;;;8.60;2.00;;;;;;;;;;5038902;28;20183;-74
2023/05/16 06:03:14;;;;;;;6.75;2.17;;;;;;;;;;5056840;28;20048;-74
2023/05/16 06:05:40;;;;;;;6.30;1.90;;;;;;;;;;5073816;28;20390;-74
2023/05/16 06:08:06;;;;;;;4.97;2.00;;;;;;;;;;5035061;28;20040;-74
2023/05/16 06:10:32;;;;;;;2.92;1.70;;;;;;;;;;5069778;28;20093;-74
2023/05/16 06:12:59;;;;;;;5.28;2.00;;;;;;;;;;5057875;28;20440;-74
2023/05/16 06:15:25;;;;;;;9.52;2.22;;;;;;;;;;5057588;28;20049;-75
2023/05/16 06:17:52;;;;;;;12.45;3.00;;;;;;;;;;5021028;28;20045;-75
2023/05/16 06:20:18;;;;;;;8.23;2.30;;;;;;;;;;5055921;28;20045;-75
2023/05/16 06:22:44;;;;;;;6.70;2.13;;;;;;;;;;5053779;28;20498;-74
2023/05/16 06:25:10;;;;;;;6.78;2.25;;;;;;;;;;5075456;28;20040;-75
2023/05/16 06:27:36;;;;;;;9.57;2.53;;;;;;;;;;5059757;28;20549;-75
2023/05/16 06:30:02;;;;;;;9.38;2.15;;;;;;;;;;5059495;28;20045;-75
2023/05/16 06:32:29;;;;;;;10.32;2.35;;;;;;;;;;5055777;28;20091;-75
2023/05/16 06:34:55;;;;;;;10.77;2.35;;;;;;;;;;5075616;28;20132;-76
2023/05/16 06:37:22;;;;;;;8.98;2.03;;;;;;;;;;5059181;28;20525;-76
2023/05/16 06:39:48;;;;;;;8.32;2.63;;;;;;;;;;5065968;28;20044;-76
2023/05/16 06:42:14;;;;;;;8.88;2.55;;;;;;;;;;5062815;28;20395;-77
2023/05/16 06:44:40;;;;;;;12.38;2.47;;;;;;;;;;5055059;28;20049;-76
2023/05/16 06:47:07;;;;;;;8.02;2.33;;;;;;;;;;5068005;28;20036;-76
2023/05/16 06:49:33;;;;;;;8.57;2.10;;;;;;;;;;5072428;28;20043;-75
2023/05/16 06:51:59;;;;;;;6.55;2.50;;;;;;;;;;5059578;28;20071;-75
2023/05/16 06:54:25;;;;;;;7.60;2.28;;;;;;;;;;5075381;28;20071;-76
2023/05/16 06:56:51;;;;;;;12.50;2.47;;;;;;;;;;5068033;28;20036;-75
2023/05/16 06:59:18;;;;;;;13.20;2.38;;;;;;;;;;5037112;28;20045;-76
2023/05/16 07:01:44;;;;;;;9.32;2.50;;;;;;;;;;5047704;28;20548;-75
2023/05/16 07:04:10;;;;;;;7.68;2.45;;;;;;;;;;5053264;28;20045;-76
2023/05/16 07:06:36;;;;;;;7.25;2.35;;;;;;;;;;5054474;28;20044;-76
2023/05/16 07:09:02;;;;;;;10.80;2.53;;;;;;;;;;5053911;28;20041;-76
2023/05/16 07:11:28;;;;;;;10.82;2.60;;;;;;;;;;5070198;28;20120;-76
2023/05/16 07:13:54;;;;;;;10.20;2.67;;;;;;;;;;5059913;28;20396;-76
2023/05/16 07:16:20;;;;;;;6.43;2.20;;;;;;;;;;5058742;28;20045;-76
2023/05/16 07:18:46;;;;;;;7.18;2.17;;;;;;;;;;5048153;28;20101;-76
2023/05/16 07:21:12;;;;;;;6.15;2.95;;;;;;;;;;5071048;28;20048;-80
2023/05/16 07:23:38;;;;;;;8.15;2.20;;;;;;;;;;5039965;28;20131;-74
2023/05/16 07:26:04;;;;;;;7.07;2.30;;;;;;;;;;5055166;28;20048;-76
2023/05/16 07:28:30;;;;;;;7.82;2.40;;;;;;;;;;5048142;28;20493;-76
2023/05/16 07:30:57;;;;;;;8.27;2.72;;;;;;;;;;5074292;28;20364;-76
2023/05/16 07:33:24;;;;;;;8.88;2.20;;;;;;;;;;5049474;28;20132;-76
2023/05/16 07:35:51;;;;;;;11.25;2.85;;;;;;;;;;5074208;28;20051;-77
2023/05/16 07:38:17;;;;;;;10.85;2.42;;;;;;;;;;5074652;28;20055;-76
2023/05/16 07:40:43;;;;;;;12.48;2.60;;;;;;;;;;5063962;28;20043;-76
2023/05/16 07:43:09;;;;;;;9.23;2.33;;;;;;;;;;5053201;28;20041;-76
2023/05/16 07:45:35;;;;;;;8.25;2.63;;;;;;;;;;5053005;28;20052;-75
2023/05/16 07:48:01;;;;;;;9.45;3.13;;;;;;;;;;5035961;28;20418;-76
2023/05/16 07:50:27;;;;;;;7.45;3.42;;;;;;;;;;5036654;28;20053;-76
2023/05/16 07:52:53;;;;;;;6.53;2.58;;;;;;;;;;5036111;28;20062;-76
2023/05/16 07:55:21;;;;;;;8.02;2.53;;;;;;;;;;5058282;28;20092;-76
2023/05/16 07:57:47;;;;;;;7.80;2.22;;;;;;;;;;5038953;28;20552;-76
2023/05/16 08:00:22;;;;;;;6.18;2.38;;;;;;;;;;5055638;28;20120;-76
2023/05/16 08:02:48;;;;;;;8.53;2.70;;;;;;;;;;5073685;28;20045;-76
2023/05/16 08:05:15;;;;;;;6.53;2.30;;;;;;;;;;5073943;28;20398;-75
2023/05/16 08:07:41;;;;;;;7.53;2.17;;;;;;;;;;5056090;28;20152;-76
2023/05/16 08:10:07;;;;;;;14.80;2.58;;;;;;;;;;5045707;28;20132;-76
2023/05/16 08:12:33;;;;;;;9.02;2.35;;;;;;;;;;5042577;28;20479;-76
2023/05/16 08:14:59;;;;;;;6.40;2.03;;;;;;;;;;5034947;28;20132;-76
2023/05/16 08:17:25;;;;;;;7.88;2.30;;;;;;;;;;5050668;28;20086;-76
2023/05/16 08:19:51;;;;;;;5.47;1.75;;;;;;;;;;5053350;28;20075;-76
2023/05/16 08:22:18;;;;;;;6.45;2.20;;;;;;;;;;5035681;28;20041;-75
2023/05/16 08:24:44;;;;;;;7.03;2.40;;;;;;;;;;5052553;28;20048;-76
2023/05/16 08:27:10;;;;;;;7.40;2.33;;;;;;;;;;5032665;28;20399;-76
2023/05/16 08:29:37;;;;;;;6.13;2.35;;;;;;;;;;5052563;28;20041;-76
2023/05/16 08:32:03;;;;;;;9.98;2.30;;;;;;;;;;5051958;28;20040;-76
2023/05/16 08:34:32;;;;;;;8.48;2.63;;;;;;;;;;5034985;28;20045;-76
2023/05/16 08:36:58;;;;;;;6.40;2.15;;;;;;;;;;5052452;28;20422;-76
2023/05/16 08:39:25;;;;;;;13.15;2.80;;;;;;;;;;5053048;28;20475;-78
2023/05/16 08:41:51;;;;;;;10.63;3.35;;;;;;;;;;5033090;28;20364;-76
2023/05/16 08:44:20;;;;;;;11.18;2.60;;;;;;;;;;5036296;28;20053;-76
2023/05/16 08:46:53;;;;;;;9.77;2.20;;;;;;;;;;5022604;28;20096;-76
2023/05/16 08:49:19;;;;;;;8.20;2.63;;;;;;;;;;5039050;28;20041;-76
2023/05/16 08:51:51;;;;;;;5.25;2.05;;;;;;;;;;5028225;28;20057;-76
2023/05/16 08:54:17;;;;;;;6.57;2.33;;;;;;;;;;5035343;28;20124;-76
2023/05/16 08:56:43;;;;;;;8.75;2.17;;;;;;;;;;5051361;28;20041;-76
2023/05/16 08:59:10;;;;;;;7.47;2.20;;;;;;;;;;5033468;28;20102;-76
2023/05/16 09:01:37;;;;;;;7.22;2.03;;;;;;;;;;5015073;28;20534;-76
2023/05/16 09:04:03;;;;;;;9.05;2.10;;;;;;;;;;5033098;28;20041;-76
2023/05/16 09:06:29;;;;;;;9.85;3.00;;;;;;;;;;5017197;28;20137;-76
2023/05/16 09:08:56;;;;;;;10.40;2.50;;;;;;;;;;5051592;28;20077;-77
2023/05/16 09:11:22;;;;;;;8.02;2.30;;;;;;;;;;5073059;28;20087;-76
2023/05/16 09:13:48;;;;;;;8.18;2.10;;;;;;;;;;5052767;28;20098;-76
2023/05/16 09:16:20;;;;;;;6.68;2.78;;;;;;;;;;5072765;28;20053;-79
2023/05/16 09:18:57;;;;;;;8.15;2.20;;;;;;;;;;5055933;28;20063;-76
2023/05/16 09:21:26;;;;;;;7.50;2.58;;;;;;;;;;5056379;28;20073;-76
2023/05/16 09:23:52;;;;;;;7.57;2.53;;;;;;;;;;5072452;28;20067;-76
2023/05/16 09:26:18;;;;;;;6.82;1.92;;;;;;;;;;5054569;28;20110;-75
2023/05/16 09:28:45;;;;;;;7.90;2.05;;;;;;;;;;5052758;28;20053;-76
2023/05/16 09:31:25;;;;;;;6.03;1.98;;;;;;;;;;5053048;28;20037;-78
2023/05/16 09:33:52;;;;;;;6.55;1.88;;;;;;;;;;5034464;28;20056;-76
2023/05/16 09:36:18;;;;;;;7.72;2.17;;;;;;;;;;5038143;28;20036;-76
2023/05/16 09:38:45;;;;;;;10.18;2.30;;;;;;;;;;5057058;28;20048;-78
2023/05/16 09:41:11;;;;;;;10.98;2.13;;;;;;;;;;5038892;28;20052;-80
2023/05/16 09:43:38;;;;;;;5.90;2.00;;;;;;;;;;5043471;28;20048;-78
2023/05/16 09:46:04;;;;;;;7.53;2.22;;;;;;;;;;5059184;28;20482;-78
2023/05/16 09:48:31;;;;;;;9.77;2.33;;;;;;;;;;5052129;28;20123;-77
2023/05/16 09:51:02;;;;;;;6.38;2.60;;;;;;;;;;5076188;28;20040;-76
2023/05/16 09:53:32;;;;;;;8.07;1.92;;;;;;;;;;5041373;28;20044;-77
2023/05/16 09:56:00;;;;;;;8.02;2.65;;;;;;;;;;5071515;28;20037;-77
2023/05/16 09:58:29;;;;;;;7.60;2.50;;;;;;;;;;5066647;28;20040;-80
2023/05/16 10:00:57;;;;;;;7.10;2.22;;;;;;;;;;5061705;28;20048;-77
2023/05/16 10:03:23;;;;;;;7.60;2.13;;;;;;;;;;5074834;28;20048;-77
2023/05/16 10:05:49;;;;;;;12.93;2.50;;;;;;;;;;5075760;28;20044;-77
2023/05/16 10:08:15;;;;;;;10.70;2.65;;;;;;;;;;5075949;28;20083;-76
2023/05/16 10:10:42;;;;;;;6.45;2.40;;;;;;;;;;5054926;28;20395;-76
2023/05/16 10:13:10;;;;;;;10.70;2.80;;;;;;;;;;5075239;28;20048;-76
2023/05/16 10:15:36;;;;;;;7.03;1.98;;;;;;;;;;5075956;28;20080;-76
2023/05/16 10:18:04;;;;;;;7.53;2.28;;;;;;;;;;5075777;28;20076;-77
2023/05/16 10:20:30;;;;;;;7.22;2.38;;;;;;;;;;5057528;28;20383;-77
2023/05/16 10:22:57;;;;;;;7.63;2.17;;;;;;;;;;5075637;28;20040;-76
2023/05/16 10:25:33;;;;;;;8.27;2.20;;;;;;;;;;5075032;28;20068;-76
2023/05/16 10:27:59;;;;;;;11.27;2.45;;;;;;;;;;5056581;28;20490;-77
2023/05/16 10:30:25;;;;;;;6.57;2.38;;;;;;;;;;5057252;28;20059;-77
2023/05/16 10:32:52;;;;;;;7.78;2.22;;;;;;;;;;5057178;28;20041;-77
2023/05/16 10:35:20;;;;;;;6.22;2.28;;;;;;;;;;5058349;28;20044;-77
2023/05/16 10:37:47;;;;;;;10.75;2.78;;;;;;;;;;5040532;28;20565;-77
2023/05/16 10:43:35;;;;;;;6.82;2.05;;;;;;;;;;5065050;28;20356;-77
2023/05/16 10:46:11;;;;;;;9.68;2.17;;;;;;;;;;5057403;28;20518;-77
2023/05/16 10:48:37;;;;;;;8.75;2.47;;;;;;;;;;5074065;28;20060;-77
2023/05/16 10:51:23;;;;;;;8.13;2.45;;;;;;;;;;5075124;28;20119;-77
2023/05/16 10:53:53;;;;;;;9.30;2.75;;;;;;;;;;5056829;28;20488;-77
2023/05/16 10:56:23;;;;;;;9.02;2.70;;;;;;;;;;5056886;28;20108;-77
2023/05/16 10:58:50;;;;;;;6.45;2.42;;;;;;;;;;5075198;28;20040;-77
2023/05/16 11:01:23;;;;;;;10.32;2.92;;;;;;;;;;5059359;28;20053;-77
2023/05/16 11:03:59;;;;;;;9.18;2.90;;;;;;;;;;5071525;28;20041;-78
2023/05/16 11:06:28;;;;;;;8.32;2.75;;;;;;;;;;5074955;28;20044;-77
2023/05/16 11:09:25;;;;;;;6.50;2.80;;;;;;;;;;5074874;28;20055;-77
2023/05/16 11:11:52;;;;;;;7.88;2.50;;;;;;;;;;5074206;28;20052;-77
2023/05/16 11:14:22;;;;;;;7.25;3.00;;;;;;;;;;5075392;28;20056;-77
2023/05/16 11:16:49;;;;;;;7.43;3.17;;;;;;;;;;5053135;28;20049;-77
2023/05/16 11:19:28;;;;;;;8.30;3.20;;;;;;;;;;5054453;28;20071;-78
2023/05/16 11:22:10;;;;;;;10.90;3.20;;;;;;;;;;5054940;28;20036;-77
2023/05/16 11:24:37;;;;;;;11.10;3.22;;;;;;;;;;5054732;28;20045;-77
2023/05/16 11:27:04;;;;;;;8.13;3.38;;;;;;;;;;5054118;28;20399;-77
2023/05/16 11:29:36;;;;;;;7.47;2.95;;;;;;;;;;5054970;28;20051;-77
2023/05/16 11:32:04;;;;;;;8.57;3.35;;;;;;;;;;5061181;28;20124;-77
2023/05/16 11:34:31;;;;;;;8.48;3.40;;;;;;;;;;5054506;28;20376;-77
2023/05/16 11:36:59;;;;;;;5.45;2.63;;;;;;;;;;5074227;28;20090;-77
2023/05/16 11:39:25;;;;;;;8.85;3.20;;;;;;;;;;5074271;28;20055;-77
2023/05/16 11:41:51;;;;;;;5.88;2.60;;;;;;;;;;5061570;28;20407;-77
2023/05/16 11:44:17;;;;;;;5.40;2.90;;;;;;;;;;5053297;28;20102;-77
2023/05/16 11:46:43;;;;;;;8.02;3.08;;;;;;;;;;5055672;28;20059;-77
2023/05/16 11:49:09;;;;;;;11.35;3.03;;;;;;;;;;5056017;28;20049;-77
2023/05/16 11:51:39;;;;;;;8.00;2.67;;;;;;;;;;5074170;28;20097;-77
2023/05/16 11:54:06;;;;;;;9.43;2.90;;;;;;;;;;5073987;28;20055;-77
2023/05/16 11:56:34;;;;;;;8.95;3.45;;;;;;;;;;5074105;28;20157;-77
2023/05/16 11:59:01;;;;;;;9.27;3.40;;;;;;;;;;5077080;28;20045;-77
2023/05/16 12:01:34;;;;;;;7.00;3.05;;;;;;;;;;5048189;28;20053;-77
2023/05/16 12:04:00;;;;;;;8.20;3.15;;;;;;;;;;5076097;28;20044;-77
2023/05/16 12:06:28;;;;;;;8.70;3.78;;;;;;;;;;5073810;28;20076;-78
2023/05/16 12:08:54;;;;;;;7.72;3.15;;;;;;;;;;5074056;28;20124;-76
2023/05/16 12:11:22;;;;;;;11.05;3.33;;;;;;;;;;5059611;28;20585;-77
2023/05/16 12:13:48;;;;;;;7.25;2.75;;;;;;;;;;5072229;28;20050;-78
2023/05/16 12:16:15;;;;;;;7.20;3.30;;;;;;;;;;5051832;28;20048;-77
2023/05/16 12:18:41;;;;;;;7.95;3.30;;;;;;;;;;5053237;28;20399;-77
2023/05/16 12:21:07;;;;;;;8.82;3.42;;;;;;;;;;5064184;28;20048;-77
2023/05/16 12:23:34;;;;;;;10.25;3.40;;;;;;;;;;5073612;28;20131;-77
2023/05/16 12:26:00;;;;;;;6.15;2.72;;;;;;;;;;5073426;28;20040;-77
2023/05/16 12:28:33;;;;;;;4.53;3.10;;;;;;;;;;5073440;28;20047;-77
2023/05/16 12:30:59;;;;;;;9.13;3.55;;;;;;;;;;5072994;28;20079;-77
2023/05/16 12:33:25;;;;;;;6.53;2.97;;;;;;;;;;5051828;28;20048;-77
2023/05/16 12:35:51;;;;;;;8.63;3.88;;;;;;;;;;5053029;28;20128;-76
2023/05/16 12:38:18;;;;;;;9.07;3.05;;;;;;;;;;5069070;28;20398;-77
2023/05/16 12:40:45;;;;;;;7.50;3.10;;;;;;;;;;5070662;28;20556;-76
2023/05/16 12:43:17;;;;;;;7.55;3.25;;;;;;;;;;5063199;28;20059;-76
2023/05/16 12:45:49;;;;;;;7.28;3.00;;;;;;;;;;5062521;28;20579;-77
2023/05/16 12:48:15;;;;;;;9.07;3.10;;;;;;;;;;5059424;28;20080;-77
2023/05/16 12:50:41;;;;;;;7.03;3.20;;;;;;;;;;5062058;28;20145;-76
2023/05/16 12:53:12;;;;;;;7.00;2.85;;;;;;;;;;5057797;28;20041;-76
2023/05/16 12:55:38;;;;;;;5.38;2.50;;;;;;;;;;5071867;28;20041;-76
2023/05/16 12:58:04;;;;;;;6.45;2.60;;;;;;;;;;5064420;28;20183;-76
2023/05/16 13:00:31;;;;;;;7.72;3.13;;;;;;;;;;5071956;28;20041;-76
2023/05/16 13:02:57;;;;;;;5.95;2.47;;;;;;;;;;5054933;28;20147;-76
2023/05/16 13:05:23;;;;;;;8.48;3.00;;;;;;;;;;5059686;28;20037;-77
2023/05/16 13:07:53;;;;;;;6.65;2.70;;;;;;;;;;5018918;28;20045;-76
2023/05/16 13:10:19;;;;;;;5.15;2.60;;;;;;;;;;5055104;28;20445;-77
2023/05/16 13:12:46;;;;;;;7.85;2.78;;;;;;;;;;5056605;28;20127;-76
2023/05/16 13:15:12;;;;;;;6.50;2.95;;;;;;;;;;5054597;28;20047;-77
2023/05/16 13:17:39;;;;;;;6.00;3.08;;;;;;;;;;5035845;28;20081;-77
2023/05/16 13:20:08;;;;;;;4.57;2.40;;;;;;;;;;5019089;28;20064;-77
2023/05/16 13:22:34;;;;;;;4.18;2.28;;;;;;;;;;5035361;28;20084;-77
2023/05/16 13:25:04;;;;;;;8.10;3.13;;;;;;;;;;5049174;28;20096;-77
2023/05/16 13:27:30;;;;;;;6.05;2.72;;;;;;;;;;5036491;28;20050;-76
2023/05/16 13:29:57;;;;;;;5.43;2.97;;;;;;;;;;5037055;28;20045;-76
2023/05/16 13:32:23;;;;;;;14.43;3.38;;;;;;;;;;5044381;28;20038;-76
2023/05/16 13:34:50;;;;;;;7.70;3.05;;;;;;;;;;5049197;28;20079;-76
2023/05/16 13:37:16;;;;;;;6.35;2.70;;;;;;;;;;5047995;28;20127;-77
2023/05/16 13:39:42;;;;;;;6.32;2.95;;;;;;;;;;5039113;28;20072;-77
2023/05/16 13:42:08;;;;;;;7.28;2.30;;;;;;;;;;5034885;28;20407;-77
2023/05/16 13:44:35;;;;;;;6.70;2.72;;;;;;;;;;5036777;28;20045;-77
2023/05/16 13:47:01;;;;;;;7.32;2.90;;;;;;;;;;5039641;28;20067;-78
2023/05/16 13:49:27;;;;;;;6.40;2.60;;;;;;;;;;5054811;28;20131;-76
2023/05/16 13:51:53;;;;;;;7.95;2.85;;;;;;;;;;5051704;28;20381;-77
2023/05/16 13:54:21;;;;;;;7.00;2.58;;;;;;;;;;5046535;28;20049;-77
2023/05/16 13:56:47;;;;;;;5.80;2.45;;;;;;;;;;5063286;28;20133;-77
2023/05/16 13:59:13;;;;;;;6.35;2.40;;;;;;;;;;5049228;28;20118;-77
2023/05/16 14:01:40;;;;;;;5.15;2.10;;;;;;;;;;5052402;28;20445;-77
2023/05/16 14:04:06;;;;;;;7.90;2.03;;;;;;;;;;5047034;28;20048;-76
2023/05/16 14:06:33;;;;;;;5.63;2.00;;;;;;;;;;5055696;28;20049;-76
2023/05/16 14:08:59;;;;;;;5.15;2.13;;;;;;;;;;5044777;28;20411;-77
2023/05/16 14:11:26;;;;;;;5.63;2.20;;;;;;;;;;5068614;28;20051;-77
2023/05/16 14:13:55;;;;;;;8.00;2.72;;;;;;;;;;5075664;28;20131;-77
2023/05/16 14:16:21;;;;;;;6.88;2.10;;;;;;;;;;5071402;28;20130;-77
2023/05/16 14:18:47;;;;;;;7.72;2.35;;;;;;;;;;5062344;28;20078;-77
2023/05/16 14:21:13;;;;;;;6.60;2.40;;;;;;;;;;5060109;28;20527;-77
2023/05/16 14:23:40;;;;;;;6.60;2.00;;;;;;;;;;5058564;28;20395;-77
2023/05/16 14:26:06;;;;;;;3.88;2.00;;;;;;;;;;5055421;28;20052;-76
2023/05/16 14:28:32;;;;;;;6.47;2.10;;;;;;;;;;5067507;28;20190;-77
2023/05/16 14:30:58;;;;;;;6.38;2.05;;;;;;;;;;5061199;28;20040;-77
2023/05/16 14:33:25;;;;;;;3.15;1.70;;;;;;;;;;5055051;28;20048;-77
2023/05/16 14:35:51;;;;;;;7.65;2.13;;;;;;;;;;5064308;28;20478;-77
2023/05/16 14:38:17;;;;;;;6.03;2.40;;;;;;;;;;5073751;28;20076;-77
2023/05/16 14:40:43;;;;;;;7.20;2.40;;;;;;;;;;5073660;28;20070;-77